This is the latest recevied weather packets stored in our database for station/object OZ0AJ-13. If no packets are shown the sender has not sent any weather packets the latest 1 day(s).
| Time | Temp. | Humidity | Pressure | Rain* | Wind** | Luminosity | Snow |
|---|---|---|---|---|---|---|---|
| 1778011224 | 8.33° C | 76% | 1012.1 hPa | 0 mm | 1.34 m/s, 19° | - | - |
| 1778010620 | 8.33° C | 76% | 1012.1 hPa | 0 mm | 1.34 m/s, 19° | - | - |
| 1778010016 | 8.33° C | 76% | 1012.1 hPa | 0 mm | 1.34 m/s, 19° | - | - |
| 1778009432 | 8.89° C | 77% | 1012 hPa | 0 mm | 1.34 m/s, 19° | - | - |
| 1778008828 | 8.89° C | 76% | 1011.9 hPa | 0 mm | 1.34 m/s, 19° | - | - |
| 1778008225 | 9.44° C | 74% | 1011.9 hPa | 0 mm | 1.34 m/s, 19° | - | - |
| 1778007620 | 9.44° C | 73% | 1011.8 hPa | 0 mm | 1.34 m/s, 19° | - | - |
| 1778007016 | 10° C | 71% | 1011.7 hPa | 0 mm | 1.34 m/s, 19° | - | - |
| 1778006433 | 10.56° C | 69% | 1011.8 hPa | 0 mm | 1.34 m/s, 19° | - | - |
| 1778005829 | 11.67° C | 65% | 1011.7 hPa | 0 mm | 1.34 m/s, 19° | - | - |
| 1778005225 | 12.78° C | 62% | 1011.9 hPa | 0 mm | 1.34 m/s, 19° | - | - |
| 1778004621 | 12.78° C | 61% | 1011.8 hPa | 0 mm | 1.34 m/s, 19° | - | - |
| 1778004021 | 13.33° C | 60% | 1011.8 hPa | 0 mm | 1.34 m/s, 19° | - | - |
| 1778003433 | 13.33° C | 58% | 1011.6 hPa | 0 mm | 1.34 m/s, 19° | - | - |
| 1778002829 | 14.44° C | 54% | 1011.7 hPa | 0 mm | 1.34 m/s, 19° | - | - |
| 1778002226 | 14.44° C | 55% | 1011.6 hPa | 0 mm | 1.34 m/s, 19° | - | - |
| 1778001622 | 13.89° C | 55% | 1011.7 hPa | 0 mm | 1.34 m/s, 19° | - | - |
| 1778001018 | 13.89° C | 56% | 1011.7 hPa | 0 mm | 1.34 m/s, 19° | - | - |
| 1778000434 | 14.44° C | 56% | 1011.7 hPa | 0 mm | 1.34 m/s, 19° | - | - |
| 1777999830 | 14.44° C | 55% | 1011.8 hPa | 0 mm | 1.34 m/s, 19° | - | - |
| 1777999226 | 15.56° C | 51% | 1011.6 hPa | 0 mm | 1.34 m/s, 19° | - | - |
| 1777998622 | 15.56° C | 49% | 1011.7 hPa | 0 mm | 1.34 m/s, 19° | - | - |
| 1777998018 | 15.56° C | 48% | 1011.7 hPa | 0 mm | 1.34 m/s, 19° | - | - |
| 1777997435 | 15.56° C | 50% | 1011.9 hPa | 0 mm | 1.34 m/s, 19° | - | - |
| 1777996831 | 15.56° C | 49% | 1011.8 hPa | 0 mm | 1.34 m/s, 19° | - | - |
* Rain latest hour (hover to see other rain measurements)
** Current wind speed in m/s (hover to see current wind gust speed)